createdAt,value
2019-05-25T00:00:23.697Z,12.207031
2019-05-25T00:01:23.739Z,12.176819
2019-05-25T00:02:23.764Z,12.116394
2019-05-25T00:03:23.835Z,12.076111
2019-05-25T00:04:23.825Z,12.025757
2019-05-25T00:05:23.844Z,11.985474
2019-05-25T00:06:23.909Z,11.94519
2019-05-25T00:07:23.928Z,11.925049
2019-05-25T00:08:23.965Z,11.854553
2019-05-25T00:09:23.966Z,11.784058
2019-05-25T00:10:23.976Z,11.743774
2019-05-25T00:11:23.975Z,11.713562
2019-05-25T00:12:23.995Z,11.673279
2019-05-25T00:13:24.059Z,11.653137
2019-05-25T00:14:24.082Z,11.632996
2019-05-25T00:15:24.083Z,11.622925
2019-05-25T00:16:24.099Z,11.582642
2019-05-25T00:17:24.142Z,11.5625
2019-05-25T00:18:24.183Z,11.532288
2019-05-25T00:19:24.187Z,11.512146
2019-05-25T00:20:24.190Z,11.451721
2019-05-25T00:21:24.196Z,11.43158
2019-05-25T00:22:24.187Z,11.411438
2019-05-25T00:23:24.225Z,11.381226
2019-05-25T00:24:24.216Z,11.381226
2019-05-25T00:25:24.215Z,11.351013
2019-05-25T00:26:24.204Z,11.340942
2019-05-25T00:27:24.194Z,11.31073
2019-05-25T00:28:24.201Z,11.270447
2019-05-25T00:29:24.274Z,11.270447
2019-05-25T00:30:24.438Z,11.260376
2019-05-25T00:31:24.451Z,11.250305
2019-05-25T00:32:24.479Z,11.230164
2019-05-25T00:33:24.490Z,11.230164
2019-05-25T00:34:24.522Z,11.199951
2019-05-25T00:35:24.588Z,11.199951
2019-05-25T00:36:24.609Z,11.199951
2019-05-25T00:37:24.611Z,11.18988
2019-05-25T00:38:24.601Z,11.18988
2019-05-25T00:39:24.653Z,11.159668
2019-05-25T00:40:24.657Z,11.149597
2019-05-25T00:41:24.660Z,11.159668
2019-05-25T00:42:24.654Z,11.159668
2019-05-25T00:43:24.654Z,11.149597
2019-05-25T00:44:24.725Z,11.159668
2019-05-25T00:45:24.724Z,11.129456
2019-05-25T00:46:24.738Z,11.119385
2019-05-25T00:47:24.761Z,11.099243
2019-05-25T00:48:24.768Z,11.069031
2019-05-25T00:49:24.800Z,11.069031
2019-05-25T00:50:24.803Z,11.038818
2019-05-25T00:51:24.818Z,11.008606
2019-05-25T00:52:24.818Z,10.998535
2019-05-25T00:53:24.818Z,10.968323
2019-05-25T00:54:27.686Z,10.968323
2019-05-25T00:55:24.990Z,10.948181
2019-05-25T00:56:25.016Z,10.968323
2019-05-25T00:57:25.013Z,10.948181
2019-05-25T00:58:25.022Z,10.948181
2019-05-25T00:59:25.063Z,10.93811
2019-05-25T01:00:25.053Z,10.93811
2019-05-25T01:01:25.181Z,10.897827
2019-05-25T01:02:25.169Z,10.867615
2019-05-25T01:03:25.176Z,10.867615
2019-05-25T01:04:25.354Z,10.857544
2019-05-25T01:05:25.386Z,10.827332
2019-05-25T01:06:25.542Z,10.797119
2019-05-25T01:07:25.580Z,10.817261
2019-05-25T01:08:25.570Z,10.817261
2019-05-25T01:09:26.724Z,10.797119
2019-05-25T01:10:25.760Z,10.766907
2019-05-25T01:11:25.760Z,10.756836
2019-05-25T01:12:25.801Z,10.756836
2019-05-25T01:13:25.837Z,10.716553
2019-05-25T01:14:25.862Z,10.716553
2019-05-25T01:15:25.938Z,10.706482
2019-05-25T01:16:25.956Z,10.68634
2019-05-25T01:17:25.955Z,10.67627
2019-05-25T01:18:25.949Z,10.666199
2019-05-25T01:19:25.970Z,10.666199
2019-05-25T01:20:25.983Z,10.635986
2019-05-25T01:21:25.980Z,10.615845
2019-05-25T01:22:25.973Z,10.615845
2019-05-25T01:23:25.979Z,10.605774
2019-05-25T01:24:26.002Z,10.585632
2019-05-25T01:25:27.076Z,10.575562
2019-05-25T01:26:26.067Z,10.575562
2019-05-25T01:27:26.057Z,10.565491
2019-05-25T01:28:26.055Z,10.525208
2019-05-25T01:29:26.050Z,10.505066
2019-05-25T01:30:26.070Z,10.494995
2019-05-25T01:31:26.062Z,10.464783
2019-05-25T01:32:26.050Z,10.454712
2019-05-25T01:33:26.046Z,10.43457
2019-05-25T01:34:26.054Z,10.4245
2019-05-25T01:35:26.219Z,10.394287
2019-05-25T01:36:26.236Z,10.384216
2019-05-25T01:37:26.266Z,10.364075
2019-05-25T01:38:26.261Z,10.30365
2019-05-25T01:39:26.260Z,10.273438
2019-05-25T01:40:26.282Z,10.253296
2019-05-25T01:41:26.283Z,10.233154
2019-05-25T01:42:26.320Z,10.202942
2019-05-25T01:43:26.323Z,10.202942
2019-05-25T01:44:26.325Z,10.152588
2019-05-25T01:45:26.358Z,10.132446
2019-05-25T01:46:27.342Z,10.122375
2019-05-25T01:47:26.342Z,10.102234
2019-05-25T01:48:26.336Z,10.061951
2019-05-25T01:49:26.359Z,10.061951
2019-05-25T01:50:26.350Z,10.05188
2019-05-25T01:51:26.408Z,10.031738
2019-05-25T01:52:26.412Z,10.001526
2019-05-25T01:53:26.569Z,9.991455
2019-05-25T01:54:26.691Z,9.941101
2019-05-25T01:55:26.812Z,9.910889
2019-05-25T01:56:26.962Z,9.870605
2019-05-25T01:57:27.034Z,9.850464
2019-05-25T01:58:27.150Z,9.840393
2019-05-25T01:59:27.140Z,9.840393
2019-05-25T02:00:27.275Z,9.820251
2019-05-25T02:01:27.421Z,9.80011
2019-05-25T02:02:27.583Z,9.769897
2019-05-25T02:03:27.709Z,9.769897
2019-05-25T02:04:27.826Z,9.759827
2019-05-25T02:05:27.932Z,9.729614
2019-05-25T02:06:28.125Z,9.729614
2019-05-25T02:07:28.145Z,9.729614
2019-05-25T02:08:28.273Z,9.719543
2019-05-25T02:09:28.384Z,9.699402
2019-05-25T02:10:28.499Z,9.699402
2019-05-25T02:11:28.655Z,9.689331
2019-05-25T02:12:28.789Z,9.669189
2019-05-25T02:13:28.911Z,9.659119
2019-05-25T02:14:29.089Z,9.638977
2019-05-25T02:15:29.037Z,9.628906
2019-05-25T02:16:29.190Z,9.618835
2019-05-25T02:17:29.212Z,9.588623
2019-05-25T02:18:29.339Z,9.578552
2019-05-25T02:19:30.457Z,9.578552
2019-05-25T02:20:29.580Z,9.558411
2019-05-25T02:21:29.721Z,9.588623
2019-05-25T02:22:29.883Z,9.588623
2019-05-25T02:23:29.845Z,9.588623
2019-05-25T02:24:29.980Z,9.588623
2019-05-25T02:25:30.109Z,9.628906
2019-05-25T02:26:30.253Z,9.628906
2019-05-25T02:27:30.429Z,9.638977
2019-05-25T02:28:30.543Z,9.659119
2019-05-25T02:29:30.660Z,9.689331
2019-05-25T02:30:30.779Z,9.699402
2019-05-25T02:31:30.920Z,9.719543
2019-05-25T02:32:31.091Z,9.719543
2019-05-25T02:33:31.039Z,9.719543
2019-05-25T02:34:31.185Z,9.759827
2019-05-25T02:35:31.323Z,9.759827
2019-05-25T02:36:31.434Z,9.80011
2019-05-25T02:37:31.590Z,9.80011
2019-05-25T02:38:31.609Z,9.80011
2019-05-25T02:39:31.624Z,9.810181
2019-05-25T02:40:31.736Z,9.840393
2019-05-25T02:41:31.847Z,9.840393
2019-05-25T02:42:31.962Z,9.840393
2019-05-25T02:43:32.143Z,9.850464
2019-05-25T02:44:32.162Z,9.840393
2019-05-25T02:45:32.181Z,9.840393
2019-05-25T02:46:32.325Z,9.840393
2019-05-25T02:47:32.352Z,9.840393
2019-05-25T02:48:32.504Z,9.850464
2019-05-25T02:49:32.624Z,9.850464
2019-05-25T02:50:32.753Z,9.870605
2019-05-25T02:51:32.905Z,9.880676
2019-05-25T02:52:33.025Z,9.900818
2019-05-25T02:53:33.170Z,9.910889
2019-05-25T02:54:33.160Z,9.910889
2019-05-25T02:55:34.911Z,9.941101
2019-05-25T02:56:33.333Z,9.971313
2019-05-25T02:57:33.427Z,10.001526
2019-05-25T02:58:33.498Z,10.021667
2019-05-25T02:59:33.552Z,10.031738
2019-05-25T03:00:33.605Z,10.092163
2019-05-25T03:01:33.646Z,10.132446
2019-05-25T03:02:33.717Z,10.172729
2019-05-25T03:03:33.837Z,10.202942
2019-05-25T03:04:33.900Z,10.233154
2019-05-25T03:05:34.011Z,10.283508
2019-05-25T03:06:34.086Z,10.30365
2019-05-25T03:07:34.169Z,10.343933
2019-05-25T03:08:34.259Z,10.384216
2019-05-25T03:09:34.310Z,10.414429
2019-05-25T03:10:34.371Z,10.43457
2019-05-25T03:11:34.459Z,10.454712
2019-05-25T03:12:34.522Z,10.464783
2019-05-25T03:13:34.610Z,10.454712
2019-05-25T03:14:34.690Z,10.43457
2019-05-25T03:15:34.784Z,10.4245
2019-05-25T03:16:34.851Z,10.394287
2019-05-25T03:17:34.920Z,10.394287
2019-05-25T03:18:35.017Z,10.364075
2019-05-25T03:19:35.097Z,10.364075
2019-05-25T03:20:35.148Z,10.333862
2019-05-25T03:21:35.206Z,10.333862
2019-05-25T03:22:35.299Z,10.333862
2019-05-25T03:23:35.458Z,10.333862
2019-05-25T03:24:35.424Z,10.343933
2019-05-25T03:25:48.443Z,10.364075
2019-05-25T03:26:35.627Z,10.384216
2019-05-25T03:27:35.648Z,10.414429
2019-05-25T03:28:35.794Z,10.43457
2019-05-25T03:29:35.902Z,10.484924
2019-05-25T03:30:35.963Z,10.525208
2019-05-25T03:31:36.036Z,10.585632
2019-05-25T03:32:36.103Z,10.615845
2019-05-25T03:33:36.199Z,10.666199
2019-05-25T03:34:36.285Z,10.68634
2019-05-25T03:35:36.352Z,10.716553
2019-05-25T03:36:36.407Z,10.756836
2019-05-25T03:37:36.474Z,10.766907
2019-05-25T03:38:36.552Z,10.797119
2019-05-25T03:39:36.648Z,10.827332
2019-05-25T03:40:36.708Z,10.827332
2019-05-25T03:41:36.775Z,10.867615
2019-05-25T03:42:36.838Z,10.887756
2019-05-25T03:43:36.897Z,10.897827
2019-05-25T03:44:36.988Z,10.917969
2019-05-25T03:45:37.079Z,10.93811
2019-05-25T03:46:37.169Z,10.968323
2019-05-25T03:47:37.239Z,10.998535
2019-05-25T03:48:37.287Z,11.008606
2019-05-25T03:49:37.393Z,11.008606
2019-05-25T03:50:37.462Z,11.038818
2019-05-25T03:51:37.566Z,11.069031
2019-05-25T03:52:37.646Z,11.079102
2019-05-25T03:53:37.728Z,11.079102
2019-05-25T03:54:37.819Z,11.079102
2019-05-25T03:55:37.948Z,11.119385
2019-05-25T03:56:38.049Z,11.149597
2019-05-25T03:57:38.107Z,11.159668
2019-05-25T03:58:38.183Z,11.18988
2019-05-25T03:59:38.248Z,11.199951
2019-05-25T04:00:38.401Z,11.220093
2019-05-25T04:01:38.473Z,11.230164
2019-05-25T04:02:38.571Z,11.250305
2019-05-25T04:03:38.649Z,11.260376
2019-05-25T04:04:38.731Z,11.260376
2019-05-25T04:05:38.884Z,11.260376
2019-05-25T04:06:38.824Z,11.270447
2019-05-25T04:07:38.929Z,11.300659
2019-05-25T04:08:38.996Z,11.31073
2019-05-25T04:09:39.083Z,11.300659
2019-05-25T04:10:39.318Z,11.31073
2019-05-25T04:11:39.247Z,11.300659
2019-05-25T04:12:39.325Z,11.330872
2019-05-25T04:13:39.416Z,11.340942
2019-05-25T04:14:39.506Z,11.351013
2019-05-25T04:15:39.660Z,11.351013
2019-05-25T04:16:39.720Z,11.381226
2019-05-25T04:17:40.810Z,11.381226
2019-05-25T04:18:39.878Z,11.411438
2019-05-25T04:19:39.951Z,11.43158
2019-05-25T04:20:40.083Z,11.43158
2019-05-25T04:21:40.196Z,11.44165
2019-05-25T04:22:40.297Z,11.451721
2019-05-25T04:23:40.417Z,11.481934
2019-05-25T04:24:40.529Z,11.492004
2019-05-25T04:25:40.692Z,11.512146
2019-05-25T04:26:40.695Z,11.512146
2019-05-25T04:27:40.824Z,11.522217
2019-05-25T04:28:40.945Z,11.522217
2019-05-25T04:29:41.087Z,11.552429
2019-05-25T04:30:41.263Z,11.552429
2019-05-25T04:31:41.357Z,11.582642
2019-05-25T04:32:41.377Z,11.592712
2019-05-25T04:33:41.436Z,11.582642
2019-05-25T04:34:41.577Z,11.582642
2019-05-25T04:35:41.763Z,11.592712
2019-05-25T04:36:41.751Z,11.602783
2019-05-25T04:37:41.869Z,11.602783
2019-05-25T04:38:42.013Z,11.632996
2019-05-25T04:39:42.115Z,11.632996
2019-05-25T04:40:42.272Z,11.632996
2019-05-25T04:41:42.295Z,11.653137
2019-05-25T04:42:42.394Z,11.653137
2019-05-25T04:43:42.528Z,11.653137
2019-05-25T04:44:42.538Z,11.673279
2019-05-25T04:45:42.673Z,11.703491
2019-05-25T04:46:42.844Z,11.703491
2019-05-25T04:47:42.974Z,11.703491
2019-05-25T04:48:42.978Z,11.713562
2019-05-25T04:49:43.098Z,11.713562
2019-05-25T04:50:43.206Z,11.733704
2019-05-25T04:51:43.349Z,11.743774
2019-05-25T04:52:43.310Z,11.743774
2019-05-25T04:53:43.435Z,11.763916
2019-05-25T04:54:43.561Z,11.773987
2019-05-25T04:55:43.702Z,11.804199
2019-05-25T04:56:43.870Z,11.804199
2019-05-25T04:57:43.901Z,11.81427
2019-05-25T04:58:43.970Z,11.81427
2019-05-25T04:59:44.100Z,11.81427
2019-05-25T05:00:44.226Z,11.81427
2019-05-25T05:01:44.266Z,11.834412
2019-05-25T05:02:44.360Z,11.854553
2019-05-25T05:03:44.470Z,11.854553
2019-05-25T05:04:44.550Z,11.864624
2019-05-25T05:05:44.626Z,11.884766
2019-05-25T05:06:44.689Z,11.864624
2019-05-25T05:07:44.790Z,11.884766
2019-05-25T05:08:44.842Z,11.884766
2019-05-25T05:09:44.964Z,11.884766
2019-05-25T05:10:45.035Z,11.914978
2019-05-25T05:11:45.091Z,11.894836
2019-05-25T05:12:45.092Z,11.914978
2019-05-25T05:13:45.126Z,11.925049
2019-05-25T05:14:45.236Z,11.925049
2019-05-25T05:15:45.256Z,11.94519
2019-05-25T05:16:45.298Z,11.965332
2019-05-25T05:17:45.389Z,11.965332
2019-05-25T05:18:45.435Z,11.985474
2019-05-25T05:19:45.548Z,12.015686
2019-05-25T05:20:45.625Z,11.985474
2019-05-25T05:21:45.681Z,11.965332
2019-05-25T05:22:45.764Z,11.985474
2019-05-25T05:23:45.842Z,11.995544
2019-05-25T05:24:45.860Z,11.995544
2019-05-25T05:25:45.878Z,12.025757
2019-05-25T05:26:55.104Z,12.076111
2019-05-25T05:27:45.935Z,12.096252
2019-05-25T05:28:49.051Z,12.106323
2019-05-25T05:29:46.091Z,12.116394
2019-05-25T05:30:46.102Z,12.136536
2019-05-25T05:31:46.152Z,12.136536
2019-05-25T05:32:46.222Z,12.146606
2019-05-25T05:33:46.199Z,12.19696
2019-05-25T05:34:46.315Z,12.19696
2019-05-25T05:36:41.950Z,12.227173
2019-05-25T05:37:41.951Z,12.257385
2019-05-25T05:38:43.037Z,12.297668
2019-05-25T05:39:42.054Z,12.297668
2019-05-25T05:40:42.052Z,12.277527
2019-05-25T05:41:42.062Z,12.277527
2019-05-25T05:42:42.128Z,12.247314
2019-05-25T05:43:42.203Z,12.257385
2019-05-25T05:44:42.212Z,12.207031
2019-05-25T05:45:42.216Z,12.166748
2019-05-25T05:46:42.210Z,12.19696
2019-05-25T05:47:42.216Z,12.227173
2019-05-25T05:48:42.254Z,12.247314
2019-05-25T05:49:42.269Z,12.257385
2019-05-25T05:50:42.340Z,12.227173
2019-05-25T05:51:42.326Z,12.176819
2019-05-25T05:52:42.334Z,12.176819
2019-05-25T05:53:42.370Z,12.19696
2019-05-25T05:54:42.381Z,12.19696
2019-05-25T05:55:42.386Z,12.247314
2019-05-25T05:56:42.451Z,12.277527
2019-05-25T05:57:42.460Z,12.277527
2019-05-25T05:58:42.509Z,12.287598
2019-05-25T05:59:42.529Z,12.257385
2019-05-25T06:00:42.531Z,12.277527
2019-05-25T06:01:42.543Z,12.247314
2019-05-25T06:02:42.576Z,12.247314
2019-05-25T06:03:42.630Z,12.257385
2019-05-25T06:04:42.664Z,12.31781
2019-05-25T06:05:42.663Z,12.348022
2019-05-25T06:06:42.682Z,12.388306
2019-05-25T06:07:42.680Z,12.398376
2019-05-25T06:08:42.760Z,12.43866
2019-05-25T06:09:42.758Z,12.468872
2019-05-25T06:10:42.779Z,12.509155
2019-05-25T06:11:42.827Z,12.539368
2019-05-25T06:12:42.852Z,12.539368
2019-05-25T06:13:42.911Z,12.56958
2019-05-25T06:14:42.943Z,12.56958
2019-05-25T06:15:42.952Z,12.609863
2019-05-25T06:16:43.094Z,12.579651
2019-05-25T06:17:43.095Z,12.609863
2019-05-25T06:18:43.094Z,12.619934
2019-05-25T06:19:43.127Z,12.630005
2019-05-25T06:20:43.131Z,12.609863
2019-05-25T06:21:43.142Z,12.579651
2019-05-25T06:22:43.154Z,12.56958
2019-05-25T06:23:43.205Z,12.579651
2019-05-25T06:24:43.248Z,12.609863
2019-05-25T06:25:43.271Z,12.680359
2019-05-25T06:26:43.288Z,12.7005
2019-05-25T06:27:43.290Z,12.750854
2019-05-25T06:28:43.297Z,12.801208
2019-05-25T06:29:43.332Z,12.831421
2019-05-25T06:30:43.385Z,12.841492
2019-05-25T06:31:43.389Z,12.871704
2019-05-25T06:32:43.417Z,12.901917
2019-05-25T06:33:43.392Z,12.911987
2019-05-25T06:34:43.421Z,12.9422
2019-05-25T06:35:43.413Z,12.9422
2019-05-25T06:36:43.422Z,12.952271
2019-05-25T06:37:43.419Z,12.982483
2019-05-25T06:38:43.420Z,12.982483
2019-05-25T06:39:43.437Z,12.982483
2019-05-25T06:40:43.442Z,12.952271
2019-05-25T06:41:43.440Z,12.952271
2019-05-25T06:42:43.454Z,12.982483
2019-05-25T06:43:43.486Z,13.012695
2019-05-25T06:44:43.533Z,13.032837
2019-05-25T06:45:43.595Z,13.083191
2019-05-25T06:46:43.595Z,13.093262
2019-05-25T06:47:43.610Z,13.133545
2019-05-25T06:48:43.625Z,13.163757
2019-05-25T06:49:43.612Z,13.173828
2019-05-25T06:50:43.680Z,13.204041
2019-05-25T06:51:43.700Z,13.214111
2019-05-25T06:52:43.705Z,13.264465
2019-05-25T06:53:43.690Z,13.274536
2019-05-25T06:54:43.731Z,13.274536
2019-05-25T06:55:43.744Z,13.284607
2019-05-25T06:56:43.769Z,13.314819
2019-05-25T06:57:44.056Z,13.365173
2019-05-25T06:58:43.767Z,13.365173
2019-05-25T06:59:43.807Z,13.395386
2019-05-25T07:00:43.847Z,13.44574
2019-05-25T07:01:43.919Z,13.465881
2019-05-25T07:02:43.929Z,13.486023
2019-05-25T07:03:43.923Z,13.486023
2019-05-25T07:04:43.941Z,13.455811
2019-05-25T07:05:43.982Z,13.455811
2019-05-25T07:06:44.008Z,13.455811
2019-05-25T07:07:44.018Z,13.486023
2019-05-25T07:08:44.009Z,13.496094
2019-05-25T07:09:44.006Z,13.536377
2019-05-25T07:10:44.175Z,13.57666
2019-05-25T07:11:44.024Z,13.596802
2019-05-25T07:12:44.127Z,13.637085
2019-05-25T07:13:44.186Z,13.647156
2019-05-25T07:14:44.201Z,13.677368
2019-05-25T07:15:44.247Z,13.727722
2019-05-25T07:16:44.266Z,13.707581
2019-05-25T07:17:44.287Z,13.667297
2019-05-25T07:18:44.298Z,13.707581
2019-05-25T07:19:44.307Z,13.778076
2019-05-25T07:20:44.363Z,13.82843
2019-05-25T07:21:44.366Z,13.82843
2019-05-25T07:22:44.406Z,13.868713
2019-05-25T07:23:44.405Z,13.939209
2019-05-25T07:24:44.416Z,14.039917
2019-05-25T07:25:44.498Z,14.180908
2019-05-25T07:26:44.507Z,14.261475
2019-05-25T07:27:58.090Z,14.33197
2019-05-25T07:28:44.652Z,14.382324
2019-05-25T07:29:44.694Z,14.402466
2019-05-25T07:30:46.637Z,14.613953
2019-05-25T07:31:44.742Z,14.58374
2019-05-25T07:32:44.812Z,14.523315
2019-05-25T07:33:44.812Z,14.442749
2019-05-25T07:34:44.855Z,14.372253
2019-05-25T07:35:44.876Z,14.362183
2019-05-25T07:36:44.908Z,14.362183
2019-05-25T07:37:44.931Z,14.342041
2019-05-25T07:38:44.945Z,14.412537
2019-05-25T07:39:44.941Z,14.483032
2019-05-25T07:40:44.950Z,14.493103
2019-05-25T07:41:44.985Z,14.513245
2019-05-25T07:42:45.022Z,14.634094
2019-05-25T07:43:45.051Z,14.785156
2019-05-25T07:44:45.068Z,14.855652
2019-05-25T07:45:45.087Z,14.916077
2019-05-25T07:46:45.108Z,14.895935
2019-05-25T07:47:45.152Z,14.785156
2019-05-25T07:48:45.202Z,14.734802
2019-05-25T07:49:45.203Z,14.664307
2019-05-25T07:50:45.227Z,14.613953
2019-05-25T07:51:45.267Z,14.593811
2019-05-25T07:52:45.273Z,14.624023
2019-05-25T07:53:45.290Z,14.674377
2019-05-25T07:54:45.305Z,14.714661
2019-05-25T07:55:45.306Z,14.70459
2019-05-25T07:56:45.341Z,14.664307
2019-05-25T07:57:45.404Z,14.634094
2019-05-25T07:58:45.441Z,14.744873
2019-05-25T07:59:45.468Z,14.916077
2019-05-25T08:00:45.491Z,15.731812
2019-05-25T08:01:45.698Z,16.577759
2019-05-25T08:02:45.557Z,16.799316
2019-05-25T08:03:45.660Z,16.738892
2019-05-25T08:04:45.770Z,16.487122
2019-05-25T08:05:45.740Z,16.305847
2019-05-25T08:06:45.785Z,16.678467
2019-05-25T08:07:45.831Z,16.799316
2019-05-25T08:08:45.863Z,17.272644
2019-05-25T08:09:45.882Z,17.937317
2019-05-25T08:10:46.904Z,18.179016
2019-05-25T08:11:45.925Z,17.745972
2019-05-25T08:12:45.954Z,17.272644
2019-05-25T08:13:45.948Z,17.131653
2019-05-25T08:14:45.963Z,17.010803
2019-05-25T08:15:45.992Z,16.769104
2019-05-25T08:16:46.031Z,16.577759
2019-05-25T08:17:46.053Z,16.356201
2019-05-25T08:18:46.071Z,16.245422
2019-05-25T08:19:46.072Z,16.134644
2019-05-25T08:20:47.245Z,16.386414
2019-05-25T08:21:46.123Z,16.487122
2019-05-25T08:22:46.167Z,16.33606
2019-05-25T08:23:46.261Z,16.205139
2019-05-25T08:24:46.301Z,16.124573
2019-05-25T08:25:46.338Z,15.983582
2019-05-25T08:26:46.405Z,15.852661
2019-05-25T08:27:46.471Z,15.872803
2019-05-25T08:28:46.514Z,15.83252
2019-05-25T08:29:46.536Z,15.721741
2019-05-25T08:30:46.644Z,15.550537
2019-05-25T08:31:46.645Z,15.409546
2019-05-25T08:32:46.674Z,15.228271
2019-05-25T08:33:46.748Z,15.117493
2019-05-25T08:34:46.787Z,15.046997
2019-05-25T08:35:46.823Z,15.036926
2019-05-25T08:36:46.856Z,15.369263
2019-05-25T08:37:46.877Z,16.58783
2019-05-25T08:38:46.908Z,17.816467
2019-05-25T08:39:46.891Z,18.944397
2019-05-25T08:40:46.919Z,19.437866
2019-05-25T08:41:46.923Z,19.598999
2019-05-25T08:42:46.927Z,19.377441
2019-05-25T08:43:46.994Z,19.186096
2019-05-25T08:44:47.025Z,19.10553
2019-05-25T08:45:47.110Z,19.014893
2019-05-25T08:46:47.120Z,18.793335
2019-05-25T08:47:47.164Z,18.551636
2019-05-25T08:48:47.302Z,18.330078
2019-05-25T08:49:48.302Z,18.239441
2019-05-25T08:50:47.307Z,18.078308
2019-05-25T08:51:47.296Z,17.907104
2019-05-25T08:52:47.486Z,17.927246
2019-05-25T08:53:47.628Z,17.85675
2019-05-25T08:54:47.627Z,17.866821
2019-05-25T08:55:47.644Z,17.866821
2019-05-25T08:56:48.648Z,17.836609
2019-05-25T08:57:47.693Z,17.836609
2019-05-25T08:58:48.754Z,17.816467
2019-05-25T08:59:47.860Z,17.836609
2019-05-25T09:00:47.924Z,17.866821
2019-05-25T09:01:47.996Z,17.907104
2019-05-25T09:02:47.952Z,17.866821
2019-05-25T09:03:47.976Z,17.675476
2019-05-25T09:04:47.992Z,17.393494
2019-05-25T09:05:48.014Z,17.161865
2019-05-25T09:06:48.020Z,17.041016
2019-05-25T09:07:48.106Z,17.051086
2019-05-25T09:08:48.152Z,17.121582
2019-05-25T09:09:48.161Z,17.121582
2019-05-25T09:10:48.172Z,17.141724
2019-05-25T09:11:48.174Z,17.131653
2019-05-25T09:12:48.177Z,17.051086
2019-05-25T09:13:48.282Z,16.950378
2019-05-25T09:14:48.320Z,16.8396
2019-05-25T09:15:48.323Z,16.910095
2019-05-25T09:16:48.331Z,17.010803
2019-05-25T09:17:48.408Z,17.051086
2019-05-25T09:18:48.478Z,16.990662
2019-05-25T09:19:48.520Z,17.071228
2019-05-25T09:20:48.539Z,17.192078
2019-05-25T09:22:01.785Z,17.322998
2019-05-25T09:22:48.572Z,17.463989
2019-05-25T09:23:48.951Z,17.494202
2019-05-25T09:24:48.640Z,17.544556
2019-05-25T09:25:48.641Z,17.564697
2019-05-25T09:26:48.651Z,17.60498
2019-05-25T09:27:48.664Z,17.645264
2019-05-25T09:29:03.357Z,17.645264
2019-05-25T09:29:49.705Z,17.655334
2019-05-25T09:30:48.743Z,17.685547
2019-05-25T09:31:48.777Z,17.59491
2019-05-25T09:32:48.807Z,17.423706
2019-05-25T09:33:48.815Z,17.413635
2019-05-25T09:34:48.851Z,17.443848
2019-05-25T09:35:49.844Z,17.423706
2019-05-25T09:36:48.833Z,17.423706
2019-05-25T09:37:48.847Z,17.302856
2019-05-25T09:38:48.857Z,17.071228
2019-05-25T09:39:48.966Z,17.131653
2019-05-25T09:40:48.967Z,17.272644
2019-05-25T09:41:48.974Z,17.494202
2019-05-25T09:42:49.207Z,17.685547
2019-05-25T09:43:49.040Z,17.816467
2019-05-25T09:44:49.101Z,17.85675
2019-05-25T09:45:49.143Z,17.816467
2019-05-25T09:46:49.164Z,17.836609
2019-05-25T09:47:49.167Z,17.796326
2019-05-25T09:48:49.214Z,17.836609
2019-05-25T09:49:49.237Z,17.876892
2019-05-25T09:50:49.284Z,17.897034
2019-05-25T09:51:49.400Z,17.876892
2019-05-25T09:52:49.427Z,17.836609
2019-05-25T09:53:49.443Z,17.816467
2019-05-25T09:54:51.330Z,17.756042
2019-05-25T09:55:49.479Z,17.72583
2019-05-25T09:56:49.511Z,17.655334
2019-05-25T09:57:49.541Z,17.715759
2019-05-25T09:58:49.548Z,17.685547
2019-05-25T09:59:49.555Z,17.715759
2019-05-25T10:00:49.642Z,17.756042
2019-05-25T10:01:49.684Z,17.786255
2019-05-25T10:02:49.829Z,17.796326
2019-05-25T10:03:49.853Z,17.685547
2019-05-25T10:04:49.880Z,17.675476
2019-05-25T10:05:49.951Z,17.60498
2019-05-25T10:06:49.960Z,17.564697
2019-05-25T10:07:49.980Z,17.574768
2019-05-25T10:08:50.001Z,17.60498
2019-05-25T10:09:50.020Z,17.564697
2019-05-25T10:10:50.099Z,17.524414
2019-05-25T10:11:50.108Z,17.544556
2019-05-25T10:12:50.179Z,17.60498
2019-05-25T10:13:50.173Z,17.685547
2019-05-25T10:14:50.198Z,17.786255
2019-05-25T10:15:50.247Z,17.897034
2019-05-25T10:16:50.294Z,17.947388
2019-05-25T10:17:50.304Z,18.027954
2019-05-25T10:18:50.322Z,18.128662
2019-05-25T10:19:50.349Z,18.279724
2019-05-25T10:20:50.519Z,18.420715
2019-05-25T10:21:50.535Z,18.612061
2019-05-25T10:22:50.563Z,18.571777
2019-05-25T10:23:50.592Z,18.823547
2019-05-25T10:24:50.613Z,19.115601
2019-05-25T10:25:50.685Z,19.468079
2019-05-25T10:26:50.702Z,19.719849
2019-05-25T10:27:50.724Z,19.317017
2019-05-25T10:28:50.740Z,19.810486
2019-05-25T10:29:50.758Z,19.941406
2019-05-25T10:30:50.792Z,20.001831
2019-05-25T10:31:50.801Z,20.173035
2019-05-25T10:32:50.910Z,20.847778
2019-05-25T10:33:50.884Z,21.593018
2019-05-25T10:34:50.891Z,22.438965
2019-05-25T10:35:51.002Z,23.063354
2019-05-25T10:36:51.022Z,23.728027
2019-05-25T10:37:51.132Z,24.342346
2019-05-25T10:38:51.173Z,24.110718
2019-05-25T10:39:51.197Z,23.808594
2019-05-25T10:40:51.247Z,23.556824
2019-05-25T10:41:51.428Z,24.030151
2019-05-25T10:42:51.352Z,23.50647
2019-05-25T10:43:51.354Z,22.710876
2019-05-25T10:44:51.366Z,21.532593
2019-05-25T10:45:51.414Z,21.069336
2019-05-25T10:46:51.433Z,20.888062
2019-05-25T10:47:51.474Z,20.696716
2019-05-25T10:48:51.488Z,20.596008
2019-05-25T10:49:51.508Z,20.525513
2019-05-25T10:50:51.534Z,20.475159
2019-05-25T10:51:51.563Z,20.424805
2019-05-25T10:52:51.654Z,20.334167
2019-05-25T10:53:51.668Z,20.001831
2019-05-25T10:54:51.691Z,19.780273
2019-05-25T10:55:51.718Z,19.518433
2019-05-25T10:56:51.747Z,19.437866
2019-05-25T10:57:51.832Z,19.478149
2019-05-25T10:58:51.864Z,19.377441
2019-05-25T10:59:53.330Z,19.317017
2019-05-25T11:00:51.947Z,19.286804
2019-05-25T11:01:51.991Z,19.548645
2019-05-25T11:02:52.060Z,19.619141
2019-05-25T11:03:52.053Z,19.790344
2019-05-25T11:04:52.080Z,20.515442
2019-05-25T11:05:52.112Z,21.029053
2019-05-25T11:06:52.137Z,21.321106
2019-05-25T11:07:52.174Z,21.190186
2019-05-25T11:08:52.198Z,21.62323
2019-05-25T11:09:52.215Z,21.512451
2019-05-25T11:10:52.243Z,21.331177
2019-05-25T11:11:52.251Z,21.190186
2019-05-25T11:12:52.308Z,20.74707
2019-05-25T11:13:55.254Z,20.334167
2019-05-25T11:14:52.444Z,20.213318
2019-05-25T11:15:52.496Z,20.142822
2019-05-25T11:16:52.515Z,19.99176
2019-05-25T11:17:52.678Z,19.709778
2019-05-25T11:18:52.752Z,19.548645
2019-05-25T11:19:52.804Z,20.042114
2019-05-25T11:20:52.867Z,20.706787
2019-05-25T11:21:52.957Z,20.827637
2019-05-25T11:22:53.260Z,20.666504
2019-05-25T11:23:53.144Z,20.455017
2019-05-25T11:24:53.168Z,20.173035
2019-05-25T11:25:53.219Z,20.142822
2019-05-25T11:26:53.190Z,20.122681
2019-05-25T11:27:53.248Z,19.901123
2019-05-25T11:28:53.282Z,19.750061
2019-05-25T11:30:07.737Z,19.820557